createdAt,value
2022-09-12T00:04:49.415Z,98010.84
2022-09-12T00:09:50.713Z,98021.63
2022-09-12T00:14:52.093Z,98019.97
2022-09-12T00:19:53.396Z,98012.91
2022-09-12T00:24:54.718Z,98025.78
2022-09-12T00:29:55.985Z,98017.09
2022-09-12T00:34:57.282Z,98019.59
2022-09-12T00:39:58.628Z,98011.34
2022-09-12T00:44:59.947Z,98010.34
2022-09-12T00:50:05.429Z,98004.56
2022-09-12T00:55:10.552Z,98000.88
2022-09-12T01:00:14.953Z,97998.59
2022-09-12T01:05:16.835Z,98004.81
2022-09-12T01:10:19.394Z,97992.38
2022-09-12T01:15:20.714Z,97995.09
2022-09-12T01:20:31.236Z,97994.25
2022-09-12T01:25:45.084Z,97995.09
2022-09-12T01:30:49.594Z,97999.22
2022-09-12T01:35:56.733Z,97993.84
2022-09-12T01:41:16.424Z,97989.03
2022-09-12T01:46:35.006Z,97987.16
2022-09-12T01:51:39.921Z,97979.69
2022-09-12T01:56:42.881Z,97978.44
2022-09-12T02:02:10.556Z,97984.66
2022-09-12T02:07:19.008Z,97980.31
2022-09-12T02:12:25.533Z,97973.69
2022-09-12T02:17:26.961Z,97970.75
2022-09-12T02:22:30.062Z,97974.06
2022-09-12T02:27:37.825Z,97963.06
2022-09-12T02:32:53.090Z,97968.25
2022-09-12T02:38:06.279Z,97971.56
2022-09-12T02:43:07.688Z,97964.59
2022-09-12T02:48:13.507Z,97968.97
2022-09-12T02:53:15.218Z,97963.78
2022-09-12T02:58:18.175Z,97961.31
2022-09-12T03:03:22.620Z,97964.22
2022-09-12T03:09:02.529Z,97966.31
2022-09-12T03:14:13.920Z,97965.91
2022-09-12T03:19:32.225Z,97962.34
2022-09-12T03:24:37.629Z,97965.03
2022-09-12T03:29:40.139Z,97962.16
2022-09-12T03:34:41.402Z,97962.34
2022-09-12T03:39:42.728Z,97961.75
2022-09-12T03:44:44.022Z,97957.63
2022-09-12T03:49:46.570Z,97956.56
2022-09-12T03:54:47.910Z,97959.50
2022-09-12T03:59:50.067Z,97967.16
2022-09-12T04:04:51.405Z,97966.53
2022-09-12T04:09:53.325Z,97963.84
2022-09-12T04:14:54.625Z,97967.34
2022-09-12T04:19:55.893Z,97960.09
2022-09-12T04:24:57.175Z,97969.03
2022-09-12T04:29:59.445Z,97966.91
2022-09-12T04:35:00.743Z,97967.75
2022-09-12T04:40:02.191Z,97961.34
2022-09-12T04:45:03.658Z,97970.44
2022-09-12T04:50:06.893Z,97975.00
2022-09-12T04:55:08.709Z,97982.06
2022-09-12T05:00:14.395Z,97975.81
2022-09-12T05:05:17.369Z,97974.16
2022-09-12T05:10:18.889Z,97976.88
2022-09-12T05:15:20.199Z,97972.53
2022-09-12T05:20:21.526Z,97977.91
2022-09-12T05:25:22.804Z,97991.97
2022-09-12T05:30:24.163Z,97980.59
2022-09-12T05:35:25.498Z,97994.47
2022-09-12T05:40:26.861Z,97999.84
2022-09-12T05:45:29.419Z,98005.25
2022-09-12T05:50:30.762Z,98012.69
2022-09-12T05:55:34.121Z,98006.06
2022-09-12T06:00:35.455Z,98014.31
2022-09-12T06:05:36.764Z,98016.38
2022-09-12T06:10:38.492Z,98013.66
2022-09-12T06:15:39.763Z,98015.69
2022-09-12T06:20:41.107Z,98014.22
2022-09-12T06:25:46.150Z,98015.00
2022-09-12T06:30:48.729Z,98019.53
2022-09-12T06:35:50.070Z,98019.09
2022-09-12T06:40:51.466Z,98017.19
2022-09-12T06:45:52.797Z,98016.50
2022-09-12T06:51:04.890Z,98024.34
2022-09-12T06:56:10.555Z,98033.44
2022-09-12T07:01:15.200Z,98037.13
2022-09-12T07:06:18.804Z,98034.59
2022-09-12T07:11:21.479Z,98038.53
2022-09-12T07:16:22.930Z,98044.88
2022-09-12T07:21:24.284Z,98058.56
2022-09-12T07:26:27.252Z,98048.34
2022-09-12T07:31:28.915Z,98050.38
2022-09-12T07:36:30.237Z,98055.06
2022-09-12T07:41:33.832Z,98055.38
2022-09-12T07:46:35.411Z,98050.72
2022-09-12T07:51:37.299Z,98054.41
2022-09-12T07:56:39.534Z,98059.75
2022-09-12T08:01:41.494Z,98059.31
2022-09-12T08:06:42.867Z,98059.03
2022-09-12T08:11:44.303Z,98060.75
2022-09-12T08:16:45.621Z,98055.88
2022-09-12T08:21:46.902Z,98065.19
2022-09-12T08:26:48.181Z,98061.91
2022-09-12T08:31:51.929Z,98062.34
2022-09-12T08:36:56.579Z,98071.41
2022-09-12T08:42:05.097Z,98068.34
2022-09-12T08:47:25.042Z,98068.28
2022-09-12T08:52:26.560Z,98062.94
2022-09-12T08:57:27.893Z,98054.34
2022-09-12T09:02:38.312Z,98055.66
2022-09-12T09:07:45.694Z,98053.06
2022-09-12T09:12:54.275Z,98045.97
2022-09-12T09:18:04.029Z,98060.00
2022-09-12T09:23:05.384Z,98054.03
2022-09-12T09:28:26.924Z,98051.84
2022-09-12T09:33:32.903Z,98047.69
2022-09-12T09:38:41.419Z,98048.53
2022-09-12T09:43:42.717Z,98044.78
2022-09-12T09:48:46.382Z,98044.88
2022-09-12T09:54:10.830Z,98043.00
2022-09-12T09:59:15.028Z,98044.31
2022-09-12T10:04:18.093Z,98043.84
2022-09-12T10:09:24.165Z,98037.25
2022-09-12T10:14:37.626Z,98033.69
2022-09-12T10:19:40.217Z,98032.53
2022-09-12T10:24:43.494Z,98031.47
2022-09-12T10:29:48.426Z,98037.81
2022-09-12T10:34:53.482Z,98038.66
2022-09-12T10:39:56.993Z,98030.75
2022-09-12T10:44:58.343Z,98016.72
2022-09-12T10:50:22.778Z,98020.84
2022-09-12T10:55:29.493Z,98009.22
2022-09-12T11:00:35.266Z,97996.75
2022-09-12T11:05:51.352Z,97999.81
2022-09-12T11:10:54.352Z,97997.31
2022-09-12T11:15:55.671Z,97999.22
2022-09-12T11:21:03.269Z,98003.91
2022-09-12T11:26:04.602Z,97997.19
2022-09-12T11:31:24.934Z,97995.69
2022-09-12T11:36:32.822Z,97996.41
2022-09-12T11:41:36.681Z,98006.94
2022-09-12T11:46:39.338Z,98008.84
2022-09-12T11:51:43.445Z,98003.66
2022-09-12T11:56:46.204Z,98005.78
2022-09-12T12:01:50.442Z,98012.03
2022-09-12T12:07:09.306Z,98004.84
2022-09-12T12:12:15.429Z,98003.94
2022-09-12T12:17:21.218Z,98000.28
2022-09-12T12:22:23.972Z,98001.34
2022-09-12T12:27:45.487Z,97994.13
2022-09-12T12:32:46.776Z,97987.97
2022-09-12T12:37:52.712Z,97978.22
2022-09-12T12:43:01.680Z,97978.38
2022-09-12T12:48:11.093Z,97967.09
2022-09-12T12:53:21.882Z,97966.75
2022-09-12T12:58:23.131Z,97957.78
2022-09-12T13:03:30.356Z,97961.19
2022-09-12T13:08:32.762Z,97952.97
2022-09-12T13:13:40.722Z,97947.53
2022-09-12T13:18:45.401Z,97943.28
2022-09-12T13:24:00.666Z,97934.94
2022-09-12T13:29:10.924Z,97942.03
2022-09-12T13:34:16.993Z,97931.13
2022-09-12T13:39:24.333Z,97934.16
2022-09-12T13:44:26.546Z,97926.97
2022-09-12T13:49:32.087Z,97923.34
2022-09-12T13:54:35.051Z,97924.91
2022-09-12T13:59:40.030Z,97919.59
2022-09-12T14:05:00.129Z,97911.72
2022-09-12T14:10:01.915Z,97924.47
2022-09-12T14:15:03.581Z,97920.06
2022-09-12T14:20:11.312Z,97915.81
2022-09-12T14:25:20.372Z,97909.75
2022-09-12T14:30:32.738Z,97907.22
2022-09-12T14:35:34.075Z,97900.13
2022-09-12T14:40:41.147Z,97906.09
2022-09-12T14:45:42.544Z,97894.38
2022-09-12T14:50:43.821Z,97893.88
2022-09-12T14:55:58.870Z,97891.66
2022-09-12T15:01:06.243Z,97891.06
2022-09-12T15:06:20.320Z,97890.69
2022-09-12T15:11:21.784Z,97883.03
2022-09-12T15:16:23.288Z,97877.00
2022-09-12T15:21:24.668Z,97876.91
2022-09-12T15:26:30.410Z,97877.97
2022-09-12T15:31:32.016Z,97877.16
2022-09-12T15:36:33.392Z,97878.47
2022-09-12T15:41:36.829Z,97872.16
2022-09-12T15:46:38.530Z,97872.63
2022-09-12T15:51:40.172Z,97870.34
2022-09-12T15:56:41.441Z,97869.44
2022-09-12T16:01:42.851Z,97870.97
2022-09-12T16:06:44.213Z,97876.59
2022-09-12T16:11:46.066Z,97877.56
2022-09-12T16:16:54.393Z,97869.25
2022-09-12T16:21:55.764Z,97852.63
2022-09-12T16:27:01.020Z,97857.06
2022-09-12T16:32:02.810Z,97854.81
2022-09-12T16:37:04.322Z,97853.59
2022-09-12T16:42:05.674Z,97848.59
2022-09-12T16:47:06.984Z,97837.59
2022-09-12T16:52:08.343Z,97839.09
2022-09-12T16:57:10.414Z,97835.13
2022-09-12T17:02:12.485Z,97839.31
2022-09-12T17:07:13.764Z,97820.25
2022-09-12T17:12:15.048Z,97827.72
2022-09-12T17:17:16.342Z,97824.38
2022-09-12T17:22:17.672Z,97816.91
2022-09-12T17:27:18.967Z,97817.53
2022-09-12T17:32:20.240Z,97813.94
2022-09-12T17:37:21.728Z,97814.91
2022-09-12T17:42:24.244Z,97815.03
2022-09-12T17:47:25.587Z,97813.91
2022-09-12T17:52:27.494Z,97822.19
2022-09-12T17:57:28.914Z,97815.25
2022-09-12T18:02:33.082Z,97816.44
2022-09-12T18:07:37.501Z,97818.72
2022-09-12T18:12:41.171Z,97818.03
2022-09-12T18:17:42.516Z,97819.00
2022-09-12T18:22:44.040Z,97820.78
2022-09-12T18:27:45.321Z,97811.41
2022-09-12T18:32:47.221Z,97806.94
2022-09-12T18:37:49.070Z,97816.28
2022-09-12T18:42:51.328Z,97812.88
2022-09-12T18:47:52.606Z,97815.94
2022-09-12T18:52:57.839Z,97821.69
2022-09-12T18:58:00.993Z,97813.97
2022-09-12T19:03:02.263Z,97817.00
2022-09-12T19:08:03.572Z,97817.94
2022-09-12T19:13:04.929Z,97809.97
2022-09-12T19:18:06.201Z,97807.59
2022-09-12T19:23:07.484Z,97797.97
2022-09-12T19:28:08.816Z,97798.91
2022-09-12T19:33:10.114Z,97799.38
2022-09-12T19:38:12.289Z,97794.91
2022-09-12T19:43:13.667Z,97784.22
2022-09-12T19:48:15.032Z,97785.63
2022-09-12T19:53:16.705Z,97786.56
2022-09-12T19:58:18.058Z,97783.97
2022-09-12T20:03:19.333Z,97777.59
2022-09-12T20:08:20.654Z,97780.59
2022-09-12T20:13:21.933Z,97781.53
2022-09-12T20:18:23.200Z,97780.00
2022-09-12T20:23:24.486Z,97780.94
2022-09-12T20:28:25.778Z,97774.81
2022-09-12T20:33:27.106Z,97773.03
2022-09-12T20:38:28.365Z,97774.53
2022-09-12T20:43:29.709Z,97763.81
2022-09-12T20:48:30.977Z,97758.53
2022-09-12T20:53:35.049Z,97755.47
2022-09-12T20:58:39.408Z,97758.63
2022-09-12T21:03:45.159Z,97758.47
2022-09-12T21:08:47.447Z,97751.28
2022-09-12T21:13:48.839Z,97749.28
2022-09-12T21:18:54.686Z,97741.03
2022-09-12T21:23:59.634Z,97738.19
2022-09-12T21:29:00.961Z,97735.34
2022-09-12T21:34:02.261Z,97732.94
2022-09-12T21:39:03.600Z,97730.59
2022-09-12T21:44:04.952Z,97726.09
2022-09-12T21:49:06.471Z,97729.44
2022-09-12T21:54:07.749Z,97722.06
2022-09-12T21:59:09.112Z,97714.41
2022-09-12T22:04:10.569Z,97708.41
2022-09-12T22:09:11.836Z,97698.69
2022-09-12T22:14:13.142Z,97699.75
2022-09-12T22:19:14.992Z,97692.13
2022-09-12T22:24:28.423Z,97689.88
2022-09-12T22:29:29.690Z,97697.34
2022-09-12T22:34:31.018Z,97682.25
2022-09-12T22:39:32.622Z,97673.53
2022-09-12T22:44:34.053Z,97661.13
2022-09-12T22:49:35.322Z,97649.94
2022-09-12T22:54:37.625Z,97646.91
2022-09-12T22:59:38.967Z,97639.88
2022-09-12T23:04:40.343Z,97636.56
2022-09-12T23:09:41.999Z,97627.91
2022-09-12T23:14:43.327Z,97630.00
2022-09-12T23:19:44.599Z,97629.19
2022-09-12T23:24:45.916Z,97621.31
2022-09-12T23:29:52.301Z,97620.72
2022-09-12T23:34:53.650Z,97614.97
2022-09-12T23:39:54.973Z,97615.19
2022-09-12T23:44:56.585Z,97608.16
2022-09-12T23:49:57.937Z,97596.13
2022-09-12T23:54:59.259Z,97598.13
